Time,TemperatureF,DewpointF,PressureIn,WindDirection,WindDirectionDegrees,WindSpeedMPH,WindSpeedGustMPH,Humidity,HourlyPrecipIn,Conditions,Clouds,dailyrainin,SoftwareType,DateUTC
2017-10-20 00:03:00,56.1,51.3,30.20,WSW,239,0.0,0.0,84,0.00,,,0.00,vanprod-2.5,2017-10-20 04:03:00,
2017-10-20 00:08:00,56.0,51.2,30.20,WSW,239,0.0,0.0,84,0.00,,,0.00,vanprod-2.5,2017-10-20 04:08:00,
2017-10-20 00:13:00,56.0,51.2,30.21,WSW,239,0.0,0.0,84,0.00,,,0.00,vanprod-2.5,2017-10-20 04:13:00,
2017-10-20 00:18:00,55.9,51.1,30.21,WSW,239,0.0,0.0,84,0.00,,,0.00,vanprod-2.5,2017-10-20 04:18:00,
2017-10-20 00:23:00,55.7,51.3,30.21,WSW,239,0.0,0.0,85,0.00,,,0.00,vanprod-2.5,2017-10-20 04:23:00,
2017-10-20 00:28:00,55.5,51.1,30.21,WSW,239,0.0,0.0,85,0.00,,,0.00,vanprod-2.5,2017-10-20 04:28:00,
2017-10-20 00:33:00,55.4,51.0,30.21,WSW,239,0.0,0.0,85,0.00,,,0.00,vanprod-2.5,2017-10-20 04:33:00,
2017-10-20 00:38:00,55.4,51.0,30.21,WSW,239,0.0,0.0,85,0.00,,,0.00,vanprod-2.5,2017-10-20 04:38:00,
2017-10-20 00:43:00,55.3,50.9,30.21,WSW,239,0.0,0.0,85,0.00,,,0.00,vanprod-2.5,2017-10-20 04:43:00,
2017-10-20 00:48:00,55.2,51.1,30.21,WSW,239,0.0,0.0,86,0.00,,,0.00,vanprod-2.5,2017-10-20 04:48:00,
2017-10-20 00:53:00,55.0,50.9,30.21,WSW,239,0.0,0.0,86,0.00,,,0.00,vanprod-2.5,2017-10-20 04:53:00,
2017-10-20 00:58:00,54.9,50.8,30.21,WSW,239,0.0,0.0,86,0.00,,,0.00,vanprod-2.5,2017-10-20 04:58:00,
2017-10-20 01:03:00,54.8,50.7,30.21,WSW,239,0.0,0.0,86,0.00,,,0.00,vanprod-2.5,2017-10-20 05:03:00,
2017-10-20 01:08:00,54.7,50.6,30.21,WSW,239,0.0,0.0,86,0.00,,,0.00,vanprod-2.5,2017-10-20 05:08:00,
2017-10-20 01:13:00,54.7,50.9,30.21,WSW,243,0.0,0.0,87,0.00,,,0.00,vanprod-2.5,2017-10-20 05:13:00,
2017-10-20 01:18:00,55.0,51.2,30.21,WSW,243,0.0,0.0,87,0.00,,,0.00,vanprod-2.5,2017-10-20 05:18:00,
2017-10-20 01:23:00,55.1,51.0,30.21,WSW,243,0.0,0.0,86,0.00,,,0.00,vanprod-2.5,2017-10-20 05:23:00,
2017-10-20 01:28:00,55.1,51.0,30.21,WSW,243,0.0,0.0,86,0.00,,,0.00,vanprod-2.5,2017-10-20 05:28:00,
2017-10-20 01:33:00,54.8,50.7,30.21,WSW,243,0.0,0.0,86,0.00,,,0.00,vanprod-2.5,2017-10-20 05:33:00,
2017-10-20 01:38:00,54.5,50.4,30.21,WSW,243,0.0,0.0,86,0.00,,,0.00,vanprod-2.5,2017-10-20 05:38:00,
2017-10-20 01:43:00,54.4,50.6,30.21,WSW,243,0.0,0.0,87,0.00,,,0.00,vanprod-2.5,2017-10-20 05:43:00,
2017-10-20 01:48:00,54.4,50.6,30.21,WSW,243,0.0,0.0,87,0.00,,,0.00,vanprod-2.5,2017-10-20 05:48:00,
2017-10-20 01:53:00,54.4,50.6,30.21,WSW,243,0.0,0.0,87,0.00,,,0.00,vanprod-2.5,2017-10-20 05:53:00,
2017-10-20 01:58:00,54.4,50.6,30.21,WSW,243,0.0,0.0,87,0.00,,,0.00,vanprod-2.5,2017-10-20 05:58:00,
2017-10-20 02:03:00,54.3,50.5,30.21,WSW,243,0.0,0.0,87,0.00,,,0.00,vanprod-2.5,2017-10-20 06:03:00,
2017-10-20 02:08:00,54.2,50.4,30.22,WSW,243,0.0,0.0,87,0.00,,,0.00,vanprod-2.5,2017-10-20 06:08:00,
2017-10-20 02:13:00,54.0,50.5,30.22,WSW,243,0.0,0.0,88,0.00,,,0.00,vanprod-2.5,2017-10-20 06:13:00,
2017-10-20 02:18:00,53.9,50.4,30.22,WSW,243,0.0,0.0,88,0.00,,,0.00,vanprod-2.5,2017-10-20 06:18:00,
2017-10-20 02:23:00,53.9,50.4,30.22,WSW,243,0.0,0.0,88,0.00,,,0.00,vanprod-2.5,2017-10-20 06:23:00,
2017-10-20 02:28:00,53.8,50.3,30.22,WSW,243,0.0,0.0,88,0.00,,,0.00,vanprod-2.5,2017-10-20 06:28:00,
2017-10-20 02:33:00,53.8,50.3,30.22,WSW,243,0.0,0.0,88,0.00,,,0.00,vanprod-2.5,2017-10-20 06:33:00,
2017-10-20 02:38:00,53.7,50.2,30.22,WSW,243,0.0,0.0,88,0.00,,,0.00,vanprod-2.5,2017-10-20 06:38:00,
2017-10-20 02:43:00,53.6,50.4,30.22,WSW,243,0.0,0.0,89,0.00,,,0.00,vanprod-2.5,2017-10-20 06:43:00,
2017-10-20 02:48:00,53.6,50.4,30.22,WSW,243,0.0,0.0,89,0.00,,,0.00,vanprod-2.5,2017-10-20 06:48:00,
2017-10-20 02:53:00,53.3,49.8,30.22,WSW,243,0.0,0.0,88,0.00,,,0.00,vanprod-2.5,2017-10-20 06:53:00,
2017-10-20 02:58:00,53.1,49.9,30.22,WSW,243,0.0,0.0,89,0.00,,,0.00,vanprod-2.5,2017-10-20 06:58:00,
2017-10-20 03:03:00,52.9,49.8,30.22,WSW,243,0.0,0.0,89,0.00,,,0.00,vanprod-2.5,2017-10-20 07:03:00,
2017-10-20 03:08:00,52.8,50.0,30.22,WSW,243,0.0,0.0,90,0.00,,,0.00,vanprod-2.5,2017-10-20 07:08:00,
2017-10-20 03:13:00,52.8,50.0,30.22,WSW,243,0.0,0.0,90,0.00,,,0.00,vanprod-2.5,2017-10-20 07:13:00,
2017-10-20 03:18:00,52.6,49.8,30.22,WSW,243,0.0,0.0,90,0.00,,,0.00,vanprod-2.5,2017-10-20 07:18:00,
2017-10-20 03:23:00,52.6,49.8,30.22,WSW,243,0.0,0.0,90,0.00,,,0.00,vanprod-2.5,2017-10-20 07:23:00,
2017-10-20 03:28:00,52.6,49.8,30.22,WSW,243,0.0,0.0,90,0.00,,,0.00,vanprod-2.5,2017-10-20 07:28:00,
2017-10-20 03:33:00,52.5,49.7,30.22,WSW,243,0.0,0.0,90,0.00,,,0.00,vanprod-2.5,2017-10-20 07:33:00,
2017-10-20 03:38:00,52.5,50.0,30.22,WSW,243,0.0,0.0,91,0.00,,,0.00,vanprod-2.5,2017-10-20 07:38:00,
2017-10-20 03:43:00,52.5,50.0,30.22,WSW,243,0.0,0.0,91,0.00,,,0.00,vanprod-2.5,2017-10-20 07:43:00,
2017-10-20 03:48:00,52.4,49.9,30.22,WSW,243,0.0,0.0,91,0.00,,,0.00,vanprod-2.5,2017-10-20 07:48:00,
2017-10-20 03:53:00,52.4,49.9,30.22,WSW,243,0.0,0.0,91,0.00,,,0.00,vanprod-2.5,2017-10-20 07:53:00,
2017-10-20 03:58:00,52.5,50.0,30.22,WSW,243,0.0,0.0,91,0.00,,,0.00,vanprod-2.5,2017-10-20 07:58:00,
2017-10-20 04:03:00,52.4,49.9,30.22,WSW,243,0.0,0.0,91,0.00,,,0.00,vanprod-2.5,2017-10-20 08:03:00,
2017-10-20 04:08:00,52.2,49.7,30.22,WSW,243,0.0,0.0,91,0.00,,,0.00,vanprod-2.5,2017-10-20 08:08:00,
2017-10-20 04:13:00,52.0,49.5,30.22,WSW,243,0.0,0.0,91,0.00,,,0.00,vanprod-2.5,2017-10-20 08:13:00,
2017-10-20 04:18:00,51.9,49.7,30.23,WSW,243,0.0,0.0,92,0.00,,,0.00,vanprod-2.5,2017-10-20 08:18:00,
2017-10-20 04:23:00,51.8,49.3,30.23,WSW,243,0.0,0.0,91,0.00,,,0.00,vanprod-2.5,2017-10-20 08:23:00,
2017-10-20 04:28:00,51.6,49.4,30.23,WSW,243,0.0,0.0,92,0.00,,,0.00,vanprod-2.5,2017-10-20 08:28:00,
2017-10-20 04:33:00,51.7,49.5,30.23,WSW,243,0.0,0.0,92,0.00,,,0.00,vanprod-2.5,2017-10-20 08:33:00,
2017-10-20 04:38:00,51.8,49.6,30.23,SW,235,0.0,0.0,92,0.00,,,0.00,vanprod-2.5,2017-10-20 08:38:00,
2017-10-20 04:43:00,51.7,49.5,30.23,SW,236,0.0,0.0,92,0.00,,,0.00,vanprod-2.5,2017-10-20 08:43:00,
2017-10-20 04:48:00,51.7,49.5,30.23,SW,235,0.0,0.0,92,0.00,,,0.00,vanprod-2.5,2017-10-20 08:48:00,
2017-10-20 04:53:00,51.6,49.4,30.23,SW,236,0.0,0.0,92,0.00,,,0.00,vanprod-2.5,2017-10-20 08:53:00,
2017-10-20 04:58:00,51.4,49.2,30.23,SW,236,0.0,0.0,92,0.00,,,0.00,vanprod-2.5,2017-10-20 08:58:00,
2017-10-20 05:03:00,51.3,49.1,30.23,SW,236,0.0,0.0,92,0.00,,,0.00,vanprod-2.5,2017-10-20 09:03:00,
2017-10-20 05:08:00,51.2,49.0,30.23,SW,236,0.0,0.0,92,0.00,,,0.00,vanprod-2.5,2017-10-20 09:08:00,
2017-10-20 05:13:00,51.2,49.2,30.23,SW,236,0.0,0.0,93,0.00,,,0.00,vanprod-2.5,2017-10-20 09:13:00,
2017-10-20 05:18:00,51.1,48.9,30.23,SW,236,0.0,0.0,92,0.00,,,0.00,vanprod-2.5,2017-10-20 09:18:00,
2017-10-20 05:23:00,51.0,49.1,30.23,SW,236,0.0,0.0,93,0.00,,,0.00,vanprod-2.5,2017-10-20 09:23:00,
2017-10-20 05:28:00,50.9,49.0,30.24,SW,235,0.0,0.0,93,0.00,,,0.00,vanprod-2.5,2017-10-20 09:28:00,
2017-10-20 05:33:00,50.7,48.8,30.24,SW,235,0.0,0.0,93,0.00,,,0.00,vanprod-2.5,2017-10-20 09:33:00,
2017-10-20 05:38:00,50.3,48.1,30.24,SW,235,0.0,0.0,92,0.00,,,0.00,vanprod-2.5,2017-10-20 09:38:00,